createdAt,value
2018-12-20T00:00:22.267Z,10.73
2018-12-20T00:02:51.530Z,10.70
2018-12-20T00:05:22.774Z,8.67
2018-12-20T00:07:52.228Z,10.30
2018-12-20T00:10:21.033Z,8.90
2018-12-20T00:12:49.396Z,8.87
2018-12-20T00:15:18.029Z,9.50
2018-12-20T00:17:49.212Z,8.00
2018-12-20T00:20:17.921Z,7.43
2018-12-20T00:22:46.301Z,8.63
2018-12-20T00:25:15.151Z,8.40
2018-12-20T00:27:43.900Z,8.63
2018-12-20T00:30:12.419Z,7.63
2018-12-20T00:32:41.330Z,7.90
2018-12-20T00:35:09.855Z,8.50
2018-12-20T00:37:38.275Z,7.90
2018-12-20T00:40:07.796Z,8.43
2018-12-20T00:42:36.604Z,8.43
2018-12-20T00:45:05.483Z,8.90
2018-12-20T00:47:34.281Z,8.67
2018-12-20T00:50:02.708Z,7.27
2018-12-20T00:52:31.106Z,9.00
2018-12-20T00:54:59.539Z,7.83
2018-12-20T00:57:28.381Z,8.30
2018-12-20T00:59:56.987Z,8.60
2018-12-20T01:02:25.478Z,7.43
2018-12-20T01:04:54.377Z,8.30
2018-12-20T01:07:27.554Z,8.60
2018-12-20T01:09:56.010Z,8.67
2018-12-20T01:12:24.477Z,8.40
2018-12-20T01:14:52.912Z,9.30
2018-12-20T01:17:21.479Z,8.50
2018-12-20T01:19:49.936Z,8.43
2018-12-20T01:22:18.627Z,8.40
2018-12-20T01:24:47.255Z,7.60
2018-12-20T01:27:15.652Z,7.83
2018-12-20T01:29:44.522Z,7.73
2018-12-20T01:32:12.961Z,7.60
2018-12-20T01:34:42.406Z,6.83
2018-12-20T01:37:11.009Z,7.20
2018-12-20T01:39:39.625Z,7.37
2018-12-20T01:42:08.057Z,6.83
2018-12-20T01:44:36.751Z,7.77
2018-12-20T01:47:05.149Z,7.60
2018-12-20T01:49:33.658Z,6.90
2018-12-20T01:52:02.211Z,7.73
2018-12-20T01:54:30.731Z,6.13
2018-12-20T01:56:59.134Z,6.20
2018-12-20T01:59:27.519Z,6.87
2018-12-20T02:01:57.103Z,6.03
2018-12-20T02:04:25.681Z,5.90
2018-12-20T02:06:54.518Z,6.70
2018-12-20T02:09:23.465Z,7.10
2018-12-20T02:11:52.385Z,5.53
2018-12-20T02:14:20.768Z,6.27
2018-12-20T02:16:49.061Z,6.90
2018-12-20T02:19:17.590Z,5.57
2018-12-20T02:21:46.007Z,7.07
2018-12-20T02:24:14.723Z,7.50
2018-12-20T02:26:43.219Z,6.13
2018-12-20T02:29:11.660Z,5.50
2018-12-20T02:31:40.673Z,7.10
2018-12-20T02:34:09.047Z,6.20
2018-12-20T02:36:37.806Z,6.33
2018-12-20T02:39:08.311Z,6.37
2018-12-20T02:41:38.114Z,5.50
2018-12-20T02:44:06.612Z,5.90
2018-12-20T02:46:35.515Z,5.33
2018-12-20T02:49:04.312Z,5.70
2018-12-20T02:51:32.891Z,5.23
2018-12-20T02:54:01.541Z,5.73
2018-12-20T02:56:30.329Z,5.87
2018-12-20T02:58:59.030Z,5.07
2018-12-20T03:01:27.514Z,5.27
2018-12-20T03:03:55.976Z,5.73
2018-12-20T03:06:25.325Z,5.00
2018-12-20T03:08:54.119Z,5.30
2018-12-20T03:11:22.693Z,5.17
2018-12-20T03:13:51.712Z,5.07
2018-12-20T03:16:20.283Z,4.50
2018-12-20T03:18:48.904Z,4.63
2018-12-20T03:21:17.360Z,4.60
2018-12-20T03:23:45.875Z,4.97
2018-12-20T03:26:14.355Z,4.67
2018-12-20T03:28:43.280Z,5.27
2018-12-20T03:31:11.743Z,4.40
2018-12-20T03:33:40.568Z,4.10
2018-12-20T03:36:09.395Z,4.10
2018-12-20T03:38:37.682Z,4.40
2018-12-20T03:41:06.132Z,4.07
2018-12-20T03:43:34.569Z,3.50
2018-12-20T03:46:03.208Z,4.07
2018-12-20T03:48:31.514Z,4.00
2018-12-20T03:51:00.092Z,3.60
2018-12-20T03:53:31.660Z,3.40
2018-12-20T03:56:00.086Z,3.80
2018-12-20T03:58:28.721Z,3.40
2018-12-20T04:01:00.473Z,3.60
2018-12-20T04:03:30.155Z,3.30
2018-12-20T04:05:59.793Z,2.97
2018-12-20T04:08:28.200Z,3.53
2018-12-20T04:10:57.204Z,3.30
2018-12-20T04:13:26.012Z,3.80
2018-12-20T04:15:54.567Z,4.27
2018-12-20T04:18:23.315Z,3.47
2018-12-20T04:20:51.745Z,3.80
2018-12-20T04:23:20.661Z,3.90
2018-12-20T04:25:49.101Z,3.70
2018-12-20T04:28:17.658Z,3.40
2018-12-20T04:30:45.982Z,3.70
2018-12-20T04:33:14.652Z,3.43
2018-12-20T04:35:44.219Z,3.63
2018-12-20T04:38:12.611Z,4.00
2018-12-20T04:40:40.993Z,3.10
2018-12-20T04:43:09.537Z,2.77
2018-12-20T04:45:46.428Z,3.17
2018-12-20T04:48:08.374Z,3.30
2018-12-20T04:50:37.129Z,2.90
2018-12-20T04:53:05.608Z,2.67
2018-12-20T04:55:33.998Z,3.00
2018-12-20T04:58:02.662Z,2.80
2018-12-20T05:00:31.039Z,2.83
2018-12-20T05:02:59.544Z,2.80
2018-12-20T05:05:27.903Z,2.40
2018-12-20T05:07:56.591Z,3.00
2018-12-20T05:10:26.094Z,2.57
2018-12-20T05:12:54.461Z,2.33
2018-12-20T05:15:22.893Z,2.60
2018-12-20T05:17:51.371Z,2.40
2018-12-20T05:20:19.896Z,2.37
2018-12-20T05:22:48.867Z,2.67
2018-12-20T05:25:17.241Z,2.43
2018-12-20T05:27:45.781Z,2.90
2018-12-20T05:30:14.822Z,2.43
2018-12-20T05:32:43.938Z,2.50
2018-12-20T05:35:13.510Z,2.83
2018-12-20T05:37:42.553Z,2.73
2018-12-20T05:40:11.580Z,2.70
2018-12-20T05:42:40.732Z,3.13
2018-12-20T05:45:09.647Z,2.53
2018-12-20T05:47:38.297Z,2.80
2018-12-20T05:50:08.019Z,2.57
2018-12-20T05:52:36.982Z,3.13
2018-12-20T05:55:06.083Z,2.90
2018-12-20T05:57:35.123Z,2.40
2018-12-20T06:00:04.506Z,2.30
2018-12-20T06:02:34.187Z,1.93
2018-12-20T06:05:03.186Z,2.10
2018-12-20T06:07:32.698Z,2.40
2018-12-20T06:10:01.473Z,2.37
2018-12-20T06:12:30.571Z,2.93
2018-12-20T06:15:00.111Z,1.90
2018-12-20T06:17:28.526Z,3.00
2018-12-20T06:19:57.141Z,2.17
2018-12-20T06:22:25.684Z,2.50
2018-12-20T06:24:54.284Z,2.63
2018-12-20T06:27:24.146Z,2.73
2018-12-20T06:29:52.962Z,2.70
2018-12-20T06:32:21.749Z,2.93
2018-12-20T06:34:50.122Z,2.77
2018-12-20T06:37:18.714Z,3.10
2018-12-20T06:39:47.430Z,3.43
2018-12-20T06:42:26.386Z,3.27
2018-12-20T06:44:55.154Z,3.03
2018-12-20T06:47:24.878Z,2.70
2018-12-20T06:49:54.572Z,4.20
2018-12-20T06:52:24.679Z,2.87
2018-12-20T06:54:54.539Z,3.07
2018-12-20T06:57:23.178Z,2.80
2018-12-20T06:59:52.042Z,3.40
2018-12-20T07:02:21.188Z,3.27
2018-12-20T07:04:50.617Z,2.90
2018-12-20T07:07:20.585Z,3.07
2018-12-20T07:09:49.981Z,3.20
2018-12-20T07:12:19.456Z,3.17
2018-12-20T07:14:48.331Z,2.90
2018-12-20T07:17:18.478Z,3.07
2018-12-20T07:19:48.362Z,3.53
2018-12-20T07:22:18.379Z,3.37
2018-12-20T07:24:47.216Z,3.27
2018-12-20T07:27:15.648Z,4.30
2018-12-20T07:29:44.153Z,4.07
2018-12-20T07:32:13.606Z,4.40
2018-12-20T07:34:47.874Z,3.73
2018-12-20T07:37:15.849Z,4.37
2018-12-20T07:39:45.870Z,4.87
2018-12-20T07:42:15.889Z,4.67
2018-12-20T07:44:44.586Z,4.23
2018-12-20T07:47:15.183Z,3.93
2018-12-20T07:49:44.842Z,3.93
2018-12-20T07:52:13.423Z,3.57
2018-12-20T07:54:42.380Z,3.00
2018-12-20T07:57:11.407Z,3.17
2018-12-20T07:59:41.960Z,3.03
2018-12-20T08:02:12.010Z,3.17
2018-12-20T08:04:41.014Z,3.20
2018-12-20T08:07:09.720Z,2.57
2018-12-20T08:09:38.847Z,2.90
2018-12-20T08:12:08.492Z,3.20
2018-12-20T08:14:37.876Z,3.10
2018-12-20T08:17:06.256Z,3.43
2018-12-20T08:19:36.395Z,2.80
2018-12-20T08:22:05.752Z,2.70
2018-12-20T08:24:34.496Z,2.70
2018-12-20T08:27:03.043Z,2.77
2018-12-20T08:29:31.456Z,2.63
2018-12-20T08:31:59.959Z,2.77
2018-12-20T08:34:28.437Z,2.90
2018-12-20T08:36:56.909Z,2.60
2018-12-20T08:39:26.030Z,2.60
2018-12-20T08:41:54.394Z,2.83
2018-12-20T08:44:22.794Z,2.50
2018-12-20T08:49:31.608Z,2.67
2018-12-20T08:52:00.597Z,2.80
2018-12-20T08:54:28.966Z,2.67
2018-12-20T08:56:57.554Z,2.23
2018-12-20T08:59:26.508Z,2.10
2018-12-20T09:01:54.918Z,2.20
2018-12-20T09:04:23.243Z,2.00
2018-12-20T09:06:51.601Z,1.60
2018-12-20T09:09:20.211Z,2.17
2018-12-20T09:11:48.872Z,1.97
2018-12-20T09:14:17.407Z,2.10
2018-12-20T09:16:46.171Z,2.83
2018-12-20T09:19:14.990Z,2.30
2018-12-20T09:21:43.805Z,2.30
2018-12-20T09:24:12.246Z,2.50
2018-12-20T09:26:40.777Z,2.40
2018-12-20T09:29:09.367Z,2.30
2018-12-20T09:31:37.697Z,2.00
2018-12-20T09:34:07.138Z,2.00
2018-12-20T09:36:35.806Z,2.17
2018-12-20T09:39:07.384Z,2.50
2018-12-20T09:41:35.852Z,1.87
2018-12-20T09:44:05.254Z,1.50
2018-12-20T09:46:34.001Z,1.80
2018-12-20T09:49:03.910Z,1.90
2018-12-20T09:51:32.304Z,2.00
2018-12-20T09:54:00.789Z,2.00
2018-12-20T09:56:29.127Z,1.77
2018-12-20T09:58:57.960Z,1.63
2018-12-20T10:01:27.205Z,1.40
2018-12-20T10:06:31.520Z,1.60
2018-12-20T10:08:59.994Z,1.60
2018-12-20T10:11:28.644Z,1.90
2018-12-20T10:13:57.353Z,1.60
2018-12-20T10:16:27.501Z,1.73
2018-12-20T10:18:55.994Z,1.90
2018-12-20T10:21:25.390Z,1.60
2018-12-20T10:23:53.890Z,1.73
2018-12-20T10:26:22.596Z,1.80
2018-12-20T10:28:51.328Z,1.70
2018-12-20T10:31:19.800Z,1.60
2018-12-20T10:33:48.316Z,1.80
2018-12-20T10:36:17.182Z,1.93
2018-12-20T10:38:45.919Z,2.37
2018-12-20T10:41:15.262Z,1.53
2018-12-20T10:43:43.637Z,1.70
2018-12-20T10:46:13.146Z,1.97
2018-12-20T10:48:41.921Z,1.40
2018-12-20T10:51:10.312Z,1.70
2018-12-20T10:53:38.632Z,1.40
2018-12-20T10:56:07.301Z,1.40
2018-12-20T10:58:35.929Z,1.57
2018-12-20T11:01:15.191Z,1.90
2018-12-20T11:03:46.907Z,1.30
2018-12-20T11:06:20.817Z,1.23
2018-12-20T11:08:55.833Z,1.90
2018-12-20T11:11:26.336Z,1.70
2018-12-20T11:13:55.578Z,0.83
2018-12-20T11:16:24.096Z,0.87
2018-12-20T11:18:52.489Z,1.30
2018-12-20T11:21:21.849Z,0.87
2018-12-20T11:23:50.247Z,0.80
2018-12-20T11:26:20.043Z,0.97
2018-12-20T11:28:49.412Z,0.70
2018-12-20T11:31:17.804Z,1.20
2018-12-20T11:33:46.407Z,1.00
2018-12-20T11:36:14.886Z,0.97
2018-12-20T11:38:43.241Z,1.20
2018-12-20T11:41:16.052Z,1.03
2018-12-20T11:43:45.119Z,1.20
2018-12-20T11:46:13.680Z,1.10
2018-12-20T11:48:42.850Z,1.60
2018-12-20T11:51:11.944Z,1.40
2018-12-20T11:53:40.553Z,1.50
2018-12-20T11:56:09.066Z,1.27
2018-12-20T11:58:37.984Z,1.40
2018-12-20T12:01:06.474Z,1.80
2018-12-20T12:03:35.014Z,1.00
2018-12-20T12:06:04.286Z,1.63
2018-12-20T12:08:33.587Z,3.00
2018-12-20T12:11:02.486Z,1.07
2018-12-20T12:13:32.068Z,1.40
2018-12-20T12:16:00.606Z,1.30
2018-12-20T12:18:29.020Z,1.30
2018-12-20T12:20:57.442Z,1.20
2018-12-20T12:23:26.359Z,1.67
2018-12-20T12:25:54.894Z,1.10
2018-12-20T12:28:24.524Z,1.00
2018-12-20T12:30:53.237Z,1.40
2018-12-20T12:33:21.974Z,1.10
2018-12-20T12:35:50.818Z,1.20
2018-12-20T12:38:19.474Z,1.07
2018-12-20T12:40:47.997Z,1.07
2018-12-20T12:43:17.321Z,1.33
2018-12-20T12:45:47.487Z,1.20
2018-12-20T12:48:16.145Z,1.73
2018-12-20T12:50:45.229Z,1.60
2018-12-20T12:53:13.820Z,1.40
2018-12-20T12:55:42.312Z,1.17
2018-12-20T12:58:10.629Z,1.10
2018-12-20T13:00:39.253Z,1.23
2018-12-20T13:03:07.773Z,1.10
2018-12-20T13:05:37.246Z,1.33
2018-12-20T13:08:05.740Z,0.83
2018-12-20T13:10:34.984Z,0.90
2018-12-20T13:13:04.178Z,1.10
2018-12-20T13:15:32.686Z,0.90
2018-12-20T13:18:13.861Z,1.47
2018-12-20T13:20:49.946Z,1.43
2018-12-20T13:23:21.715Z,1.23
2018-12-20T13:25:50.467Z,1.30
2018-12-20T13:28:19.556Z,1.00
2018-12-20T13:30:47.987Z,1.00
2018-12-20T13:33:16.405Z,2.90
2018-12-20T13:35:45.869Z,1.13
2018-12-20T13:38:14.468Z,1.27
2018-12-20T13:40:42.836Z,1.10
2018-12-20T13:43:11.877Z,0.90
2018-12-20T13:45:40.821Z,1.10
2018-12-20T13:48:09.396Z,1.27
2018-12-20T13:50:37.876Z,1.10
2018-12-20T13:53:06.529Z,0.90
2018-12-20T13:55:35.728Z,1.03
2018-12-20T13:58:04.682Z,1.10
2018-12-20T14:00:33.781Z,0.90
2018-12-20T14:03:03.357Z,1.00
2018-12-20T14:05:31.797Z,0.80
2018-12-20T14:08:00.352Z,1.03
2018-12-20T14:10:30.594Z,2.17
2018-12-20T14:12:59.131Z,0.77
2018-12-20T14:15:28.309Z,1.10
2018-12-20T14:17:57.160Z,0.87
2018-12-20T14:20:25.777Z,1.00
2018-12-20T14:22:54.485Z,1.50
2018-12-20T14:25:23.849Z,0.90
2018-12-20T14:27:53.160Z,1.17
2018-12-20T14:30:21.955Z,0.90
2018-12-20T14:32:50.557Z,1.00
2018-12-20T14:35:20.746Z,1.33
2018-12-20T14:37:50.355Z,1.33
2018-12-20T14:40:19.244Z,0.93
2018-12-20T14:42:48.547Z,1.20
2018-12-20T14:45:17.144Z,1.07
2018-12-20T14:47:46.640Z,1.00
2018-12-20T14:50:15.270Z,1.07
2018-12-20T14:52:45.054Z,1.27
2018-12-20T14:55:14.461Z,1.30
2018-12-20T14:57:45.107Z,1.33
2018-12-20T15:00:13.733Z,1.20
2018-12-20T15:02:42.317Z,1.13
2018-12-20T15:05:11.222Z,1.80
2018-12-20T15:07:39.822Z,1.53
2018-12-20T15:10:11.540Z,1.63
2018-12-20T15:12:40.229Z,1.70
2018-12-20T15:15:10.998Z,1.30
2018-12-20T15:17:40.701Z,1.50
2018-12-20T15:20:11.014Z,1.80
2018-12-20T15:22:39.722Z,2.20
2018-12-20T15:25:09.814Z,1.83
2018-12-20T15:27:38.275Z,1.20
2018-12-20T15:30:11.889Z,1.90
2018-12-20T15:32:40.642Z,1.10
2018-12-20T15:35:10.182Z,1.40
2018-12-20T15:37:39.773Z,2.10
2018-12-20T15:40:09.262Z,1.80
2018-12-20T15:42:38.814Z,1.30
2018-12-20T15:45:09.936Z,1.13
2018-12-20T15:47:39.228Z,1.60
2018-12-20T15:50:12.178Z,1.77
2018-12-20T15:52:40.809Z,1.43
2018-12-20T15:57:43.948Z,1.40
2018-12-20T16:00:14.814Z,1.50
2018-12-20T16:02:44.616Z,1.50
2018-12-20T16:05:14.157Z,2.00
2018-12-20T16:07:44.770Z,1.40
2018-12-20T16:10:15.994Z,1.73
2018-12-20T16:12:44.759Z,1.57
2018-12-20T16:15:14.596Z,2.00
2018-12-20T16:17:43.166Z,1.60
2018-12-20T16:20:13.295Z,1.63
2018-12-20T16:22:43.792Z,1.40
2018-12-20T16:25:13.182Z,1.73
2018-12-20T16:27:41.720Z,1.50
2018-12-20T16:30:11.828Z,1.80
2018-12-20T16:32:40.616Z,1.60
2018-12-20T16:35:09.383Z,1.73
2018-12-20T16:37:38.428Z,2.70
2018-12-20T16:40:07.556Z,1.67
2018-12-20T16:42:36.883Z,1.63
2018-12-20T16:45:07.148Z,1.70
2018-12-20T16:47:38.089Z,1.87
2018-12-20T16:50:09.711Z,1.33
2018-12-20T16:52:51.068Z,1.90
2018-12-20T16:55:21.643Z,1.80
2018-12-20T16:57:51.697Z,1.30
2018-12-20T17:00:22.088Z,1.73
2018-12-20T17:02:50.567Z,1.37
2018-12-20T17:05:19.708Z,1.30
2018-12-20T17:07:49.081Z,1.33
2018-12-20T17:10:18.411Z,1.50
2018-12-20T17:12:46.949Z,1.20
2018-12-20T17:15:17.709Z,1.53
2018-12-20T17:17:46.099Z,1.60
2018-12-20T17:20:14.527Z,1.60
2018-12-20T17:22:43.122Z,1.40
2018-12-20T17:25:17.539Z,1.70
2018-12-20T17:27:46.854Z,1.80
2018-12-20T17:30:15.270Z,1.87
2018-12-20T17:32:44.407Z,1.60
2018-12-20T17:35:12.986Z,1.60
2018-12-20T17:37:42.213Z,1.60
2018-12-20T17:40:11.558Z,1.70
2018-12-20T17:42:40.168Z,1.47
2018-12-20T17:45:09.225Z,1.37
2018-12-20T17:47:38.549Z,1.80
2018-12-20T17:50:08.212Z,1.67
2018-12-20T17:52:36.849Z,1.20
2018-12-20T17:55:05.865Z,1.20
2018-12-20T17:57:35.784Z,1.50
2018-12-20T18:00:05.977Z,1.70
2018-12-20T18:02:34.529Z,1.57
2018-12-20T18:05:07.071Z,1.67
2018-12-20T18:07:36.985Z,2.00
2018-12-20T18:10:09.938Z,1.33
2018-12-20T18:12:40.668Z,1.60
2018-12-20T18:15:12.132Z,1.70
2018-12-20T18:17:42.008Z,1.60
2018-12-20T18:20:11.333Z,1.40
2018-12-20T18:22:39.918Z,1.30
2018-12-20T18:25:08.691Z,1.70
2018-12-20T18:27:37.183Z,2.03
2018-12-20T18:30:09.364Z,1.80
2018-12-20T18:32:39.352Z,1.80
2018-12-20T18:35:08.504Z,1.40
2018-12-20T18:37:39.069Z,1.47
2018-12-20T18:40:09.788Z,1.70
2018-12-20T18:42:38.635Z,1.60
2018-12-20T18:45:08.146Z,1.63
2018-12-20T18:47:38.489Z,1.80
2018-12-20T18:50:08.961Z,1.70
2018-12-20T18:52:37.880Z,1.50
2018-12-20T18:55:06.924Z,1.23
2018-12-20T18:57:35.393Z,1.40
2018-12-20T19:00:05.730Z,1.60
2018-12-20T19:02:34.337Z,1.50
2018-12-20T19:05:11.096Z,1.63
2018-12-20T19:07:40.777Z,1.10
2018-12-20T19:10:10.271Z,1.00
2018-12-20T19:12:38.815Z,1.30
2018-12-20T19:15:09.650Z,1.30
2018-12-20T19:17:38.761Z,1.03
2018-12-20T19:20:15.958Z,1.27
2018-12-20T19:22:40.058Z,0.97
2018-12-20T19:25:08.632Z,0.90
2018-12-20T19:27:37.172Z,1.37
2018-12-20T19:30:12.582Z,1.20
2018-12-20T19:32:41.018Z,1.70
2018-12-20T19:35:09.736Z,2.07
2018-12-20T19:37:41.150Z,1.03
2018-12-20T19:40:11.667Z,1.20
2018-12-20T19:42:40.313Z,1.30
2018-12-20T19:45:08.897Z,1.23
2018-12-20T19:47:37.310Z,1.20
2018-12-20T19:50:08.839Z,1.23
2018-12-20T19:52:37.350Z,1.33
2018-12-20T19:55:07.240Z,1.40
2018-12-20T19:57:35.710Z,1.13
2018-12-20T20:00:06.816Z,1.40
2018-12-20T20:02:36.197Z,1.50
2018-12-20T20:05:13.622Z,1.50
2018-12-20T20:07:42.797Z,1.30
2018-12-20T20:10:17.136Z,1.30
2018-12-20T20:12:47.185Z,1.50
2018-12-20T20:15:28.588Z,1.50
2018-12-20T20:17:57.944Z,1.40
2018-12-20T20:20:27.747Z,1.60
2018-12-20T20:22:56.840Z,1.53
2018-12-20T20:25:26.532Z,1.30
2018-12-20T20:27:59.233Z,1.70
2018-12-20T20:30:29.113Z,1.87
2018-12-20T20:33:03.278Z,1.47
2018-12-20T20:35:44.276Z,1.50
2018-12-20T20:41:19.599Z,1.70
2018-12-20T20:43:55.583Z,1.57
2018-12-20T20:49:14.275Z,1.80
2018-12-20T20:51:43.122Z,1.70
2018-12-20T20:56:59.396Z,1.63
2018-12-20T21:02:12.489Z,1.90
2018-12-20T21:04:43.576Z,1.80
2018-12-20T21:07:15.737Z,2.00
2018-12-20T21:09:45.415Z,1.90
2018-12-20T21:12:22.901Z,1.83
2018-12-20T21:14:53.046Z,2.00
2018-12-20T21:17:24.787Z,2.07
2018-12-20T21:19:54.944Z,2.13
2018-12-20T21:22:26.737Z,2.63
2018-12-20T21:24:56.115Z,2.20
2018-12-20T21:30:18.158Z,1.70
2018-12-20T21:33:03.119Z,2.07
2018-12-20T21:35:47.481Z,2.17
2018-12-20T21:38:21.698Z,2.00
2018-12-20T21:40:51.780Z,1.90
2018-12-20T21:49:12.567Z,2.87
2018-12-20T21:51:42.034Z,1.90
2018-12-20T21:54:10.561Z,2.50
2018-12-20T21:56:41.165Z,1.90
2018-12-20T21:59:10.640Z,2.10
2018-12-20T22:01:40.763Z,2.60
2018-12-20T22:04:09.298Z,2.20
2018-12-20T22:06:40.644Z,1.87
2018-12-20T22:09:09.580Z,2.10
2018-12-20T22:11:39.171Z,2.30
2018-12-20T22:14:08.111Z,2.20
2018-12-20T22:16:40.008Z,2.10
2018-12-20T22:42:13.345Z,2.10
2018-12-20T22:48:05.454Z,2.00
2018-12-20T22:50:55.765Z,2.27
2018-12-20T22:53:29.358Z,1.90
2018-12-20T23:26:58.335Z,1.97
2018-12-20T23:29:45.303Z,1.90
2018-12-20T23:35:06.769Z,1.73
2018-12-20T23:46:09.746Z,1.80
2018-12-20T23:48:47.741Z,2.80
2018-12-20T23:51:17.252Z,1.63
2018-12-20T23:59:28.240Z,1.70
